createdAt,value
2022-08-28T00:00:52.284Z,48.32
2022-08-28T00:01:52.273Z,48.51
2022-08-28T00:02:52.450Z,48.41
2022-08-28T00:03:52.252Z,48.32
2022-08-28T00:04:52.300Z,48.51
2022-08-28T00:05:52.233Z,48.41
2022-08-28T00:06:52.222Z,49.30
2022-08-28T00:07:52.208Z,48.41
2022-08-28T00:08:52.198Z,48.32
2022-08-28T00:09:52.188Z,48.41
2022-08-28T00:10:52.183Z,48.41
2022-08-28T00:11:52.165Z,48.81
2022-08-28T00:12:52.155Z,48.61
2022-08-28T00:13:52.144Z,48.41
2022-08-28T00:14:52.135Z,48.51
2022-08-28T00:15:52.172Z,48.61
2022-08-28T00:16:52.117Z,48.41
2022-08-28T00:17:52.100Z,48.61
2022-08-28T00:18:52.090Z,48.61
2022-08-28T00:19:52.079Z,48.61
2022-08-28T00:20:52.070Z,48.41
2022-08-28T00:21:52.059Z,48.61
2022-08-28T00:22:52.068Z,48.32
2022-08-28T00:23:52.035Z,48.71
2022-08-28T00:24:52.025Z,49.30
2022-08-28T00:25:52.013Z,48.51
2022-08-28T00:26:52.001Z,48.51
2022-08-28T00:27:51.991Z,48.61
2022-08-28T00:28:52.010Z,48.61
2022-08-28T00:29:51.969Z,48.71
2022-08-28T00:30:52.013Z,48.81
2022-08-28T00:31:51.948Z,48.71
2022-08-28T00:32:51.937Z,48.61
2022-08-28T00:33:51.927Z,48.91
2022-08-28T00:34:51.931Z,48.61
2022-08-28T00:35:51.906Z,48.51
2022-08-28T00:36:51.894Z,48.41
2022-08-28T00:37:51.885Z,48.81
2022-08-28T00:38:51.872Z,48.61
2022-08-28T00:39:51.905Z,48.61
2022-08-28T00:40:51.916Z,49.01
2022-08-28T00:41:51.840Z,48.61
2022-08-28T00:42:52.828Z,48.91
2022-08-28T00:43:51.818Z,48.81
2022-08-28T00:44:51.806Z,48.61
2022-08-28T00:45:51.798Z,49.01
2022-08-28T00:46:51.841Z,49.01
2022-08-28T00:47:51.774Z,49.01
2022-08-28T00:48:51.765Z,49.01
2022-08-28T00:49:51.752Z,49.01
2022-08-28T00:50:51.741Z,49.40
2022-08-28T00:51:51.730Z,48.91
2022-08-28T00:52:51.751Z,48.81
2022-08-28T00:53:51.709Z,48.91
2022-08-28T00:54:59.757Z,48.81
2022-08-28T00:55:52.686Z,49.01
2022-08-28T00:56:51.676Z,48.81
2022-08-28T00:57:51.665Z,48.81
2022-08-28T00:58:51.660Z,49.01
2022-08-28T00:59:51.643Z,48.91
2022-08-28T01:00:51.632Z,48.91
2022-08-28T01:01:51.671Z,49.10
2022-08-28T01:02:51.626Z,49.10
2022-08-28T01:03:51.601Z,48.71
2022-08-28T01:04:51.595Z,48.81
2022-08-28T01:05:51.578Z,49.10
2022-08-28T01:06:51.568Z,48.81
2022-08-28T01:07:51.556Z,48.91
2022-08-28T01:08:51.545Z,48.91
2022-08-28T01:09:51.538Z,48.81
2022-08-28T01:10:51.539Z,48.83
2022-08-28T01:11:51.514Z,49.03
2022-08-28T01:12:51.501Z,48.91
2022-08-28T01:13:51.491Z,49.43
2022-08-28T01:14:51.481Z,48.91
2022-08-28T01:15:51.597Z,49.30
2022-08-28T01:16:51.465Z,49.03
2022-08-28T01:17:51.448Z,49.01
2022-08-28T01:18:51.438Z,49.01
2022-08-28T01:19:51.426Z,48.91
2022-08-28T01:20:51.418Z,48.91
2022-08-28T01:21:51.404Z,49.30
2022-08-28T01:22:51.399Z,49.01
2022-08-28T01:23:51.382Z,48.81
2022-08-28T01:24:51.373Z,48.91
2022-08-28T01:25:51.361Z,48.83
2022-08-28T01:26:51.350Z,49.22
2022-08-28T01:27:51.339Z,48.81
2022-08-28T01:28:51.337Z,49.30
2022-08-28T01:29:51.318Z,48.93
2022-08-28T01:30:51.373Z,49.52
2022-08-28T01:31:51.296Z,49.43
2022-08-28T01:32:51.285Z,48.91
2022-08-28T01:33:51.274Z,49.40
2022-08-28T01:34:51.292Z,48.83
2022-08-28T01:35:51.252Z,48.83
2022-08-28T01:36:51.241Z,49.03
2022-08-28T01:37:51.230Z,48.83
2022-08-28T01:38:51.220Z,49.30
2022-08-28T01:39:51.208Z,49.40
2022-08-28T01:40:51.218Z,49.03
2022-08-28T01:41:51.186Z,49.22
2022-08-28T01:42:51.176Z,49.40
2022-08-28T01:43:51.166Z,49.43
2022-08-28T01:44:51.155Z,49.52
2022-08-28T01:45:51.173Z,49.03
2022-08-28T01:46:51.163Z,49.33
2022-08-28T01:47:51.451Z,49.03
2022-08-28T01:48:51.111Z,48.93
2022-08-28T01:49:51.101Z,49.22
2022-08-28T01:50:51.091Z,48.81
2022-08-28T01:51:51.302Z,49.52
2022-08-28T01:52:51.074Z,49.20
2022-08-28T01:53:51.056Z,49.03
2022-08-28T01:54:51.045Z,49.40
2022-08-28T01:55:51.035Z,49.22
2022-08-28T01:56:51.026Z,49.22
2022-08-28T01:57:51.013Z,49.52
2022-08-28T01:58:51.007Z,49.22
2022-08-28T01:59:50.992Z,49.13
2022-08-28T02:00:50.981Z,49.22
2022-08-28T02:01:51.016Z,49.22
2022-08-28T02:02:50.963Z,49.33
2022-08-28T02:03:50.975Z,49.30
2022-08-28T02:04:51.000Z,49.22
2022-08-28T02:05:50.929Z,49.52
2022-08-28T02:06:50.915Z,49.22
2022-08-28T02:07:50.904Z,49.22
2022-08-28T02:08:50.893Z,48.93
2022-08-28T02:09:50.881Z,49.22
2022-08-28T02:10:50.882Z,49.22
2022-08-28T02:11:50.861Z,49.40
2022-08-28T02:12:50.850Z,49.03
2022-08-28T02:13:50.890Z,49.22
2022-08-28T02:14:50.828Z,49.22
2022-08-28T02:15:50.914Z,49.50
2022-08-28T02:16:50.828Z,49.52
2022-08-28T02:17:50.796Z,49.33
2022-08-28T02:18:50.784Z,49.43
2022-08-28T02:19:50.773Z,49.43
2022-08-28T02:20:50.762Z,48.91
2022-08-28T02:21:50.753Z,49.52
2022-08-28T02:22:50.758Z,49.43
2022-08-28T02:23:50.731Z,49.33
2022-08-28T02:24:50.719Z,49.33
2022-08-28T02:25:50.780Z,49.22
2022-08-28T02:26:50.700Z,49.22
2022-08-28T02:27:50.687Z,49.22
2022-08-28T02:28:50.682Z,49.52
2022-08-28T02:29:50.665Z,49.52
2022-08-28T02:30:50.671Z,49.22
2022-08-28T02:31:50.643Z,49.13
2022-08-28T02:32:50.633Z,49.22
2022-08-28T02:33:50.622Z,49.52
2022-08-28T02:34:50.620Z,49.13
2022-08-28T02:35:50.603Z,49.22
2022-08-28T02:36:50.592Z,49.22
2022-08-28T02:37:50.582Z,49.22
2022-08-28T02:38:55.358Z,49.52
2022-08-28T02:39:51.662Z,49.22
2022-08-28T02:40:50.545Z,49.03
2022-08-28T02:41:50.534Z,49.22
2022-08-28T02:42:50.525Z,49.22
2022-08-28T02:43:50.512Z,49.22
2022-08-28T02:44:50.501Z,49.22
2022-08-28T02:45:50.551Z,49.22
2022-08-28T02:46:50.481Z,49.22
2022-08-28T02:47:50.470Z,49.22
2022-08-28T02:48:50.462Z,49.22
2022-08-28T02:49:50.447Z,49.22
2022-08-28T02:50:50.436Z,49.22
2022-08-28T02:51:50.447Z,49.22
2022-08-28T02:52:50.415Z,49.22
2022-08-28T02:53:50.414Z,49.22
2022-08-28T02:54:50.394Z,49.22
2022-08-28T02:55:50.385Z,49.22
2022-08-28T02:56:50.371Z,49.13
2022-08-28T02:57:50.380Z,49.22
2022-08-28T02:58:50.351Z,49.22
2022-08-28T02:59:50.338Z,49.22
2022-08-28T03:00:50.332Z,48.93
2022-08-28T03:01:50.361Z,49.33
2022-08-28T03:02:50.353Z,49.22
2022-08-28T03:03:50.300Z,49.22
2022-08-28T03:04:50.285Z,49.13
2022-08-28T03:05:50.274Z,49.22
2022-08-28T03:06:50.263Z,49.13
2022-08-28T03:07:50.252Z,49.33
2022-08-28T03:08:50.240Z,48.93
2022-08-28T03:09:50.239Z,49.22
2022-08-28T03:10:50.218Z,49.22
2022-08-28T03:11:50.208Z,49.22
2022-08-28T03:12:50.198Z,49.22
2022-08-28T03:13:50.186Z,49.52
2022-08-28T03:14:50.177Z,49.22
2022-08-28T03:15:51.975Z,48.93
2022-08-28T03:16:51.213Z,49.03
2022-08-28T03:17:50.785Z,49.22
2022-08-28T03:18:50.132Z,49.13
2022-08-28T03:19:50.149Z,49.03
2022-08-28T03:20:50.113Z,49.33
2022-08-28T03:21:50.119Z,49.22
2022-08-28T03:22:50.089Z,48.93
2022-08-28T03:23:50.079Z,49.22
2022-08-28T03:24:50.067Z,49.52
2022-08-28T03:25:50.059Z,49.13
2022-08-28T03:26:50.044Z,49.22
2022-08-28T03:27:50.064Z,49.22
2022-08-28T03:28:50.024Z,49.13
2022-08-28T03:29:50.013Z,48.93
2022-08-28T03:30:50.070Z,49.22
2022-08-28T03:31:49.990Z,49.03
2022-08-28T03:32:49.979Z,49.22
2022-08-28T03:33:49.983Z,49.03
2022-08-28T03:34:49.958Z,49.22
2022-08-28T03:35:49.947Z,49.33
2022-08-28T03:36:49.936Z,49.22
2022-08-28T03:37:49.925Z,49.33
2022-08-28T03:38:49.922Z,49.13
2022-08-28T03:39:49.908Z,49.22
2022-08-28T03:40:49.892Z,48.93
2022-08-28T03:41:49.881Z,49.33
2022-08-28T03:42:53.067Z,49.22
2022-08-28T03:43:49.860Z,49.22
2022-08-28T03:44:49.849Z,49.22
2022-08-28T03:45:49.898Z,49.22
2022-08-28T03:46:49.827Z,49.33
2022-08-28T03:47:49.819Z,49.03
2022-08-28T03:48:49.806Z,49.03
2022-08-28T03:49:49.795Z,49.22
2022-08-28T03:50:49.784Z,49.22
2022-08-28T03:51:49.798Z,49.03
2022-08-28T03:52:49.762Z,49.33
2022-08-28T03:53:49.753Z,49.33
2022-08-28T03:54:49.743Z,49.22
2022-08-28T03:55:49.730Z,49.22
2022-08-28T03:56:49.719Z,49.22
2022-08-28T03:57:49.754Z,49.22
2022-08-28T03:58:49.697Z,48.93
2022-08-28T03:59:49.687Z,49.13
2022-08-28T04:00:49.692Z,49.13
2022-08-28T04:01:49.747Z,48.93
2022-08-28T04:02:49.653Z,49.03
2022-08-28T04:03:49.649Z,49.03
2022-08-28T04:04:49.632Z,49.13
2022-08-28T04:05:49.622Z,49.03
2022-08-28T04:06:49.611Z,49.13
2022-08-28T04:07:49.602Z,49.22
2022-08-28T04:08:49.589Z,49.13
2022-08-28T04:09:49.595Z,49.03
2022-08-28T04:10:49.567Z,49.03
2022-08-28T04:11:49.563Z,49.22
2022-08-28T04:12:49.545Z,49.03
2022-08-28T04:13:49.535Z,49.22
2022-08-28T04:14:49.523Z,48.93
2022-08-28T04:15:49.519Z,49.03
2022-08-28T04:16:49.546Z,49.03
2022-08-28T04:17:49.490Z,49.03
2022-08-28T04:18:49.481Z,48.93
2022-08-28T04:19:49.469Z,49.13
2022-08-28T04:20:49.459Z,49.03
2022-08-28T04:21:49.454Z,49.03
2022-08-28T04:22:49.437Z,49.03
2022-08-28T04:23:50.424Z,48.93
2022-08-28T04:24:49.416Z,49.43
2022-08-28T04:25:49.404Z,49.22
2022-08-28T04:26:49.397Z,49.33
2022-08-28T04:27:49.402Z,49.03
2022-08-28T04:28:49.375Z,49.33
2022-08-28T04:29:49.360Z,49.22
2022-08-28T04:32:05.078Z,49.03
2022-08-28T04:33:05.012Z,49.22
2022-08-28T04:34:05.041Z,49.22
2022-08-28T04:35:04.979Z,49.22
2022-08-28T04:36:04.967Z,49.13
2022-08-28T04:37:04.959Z,49.03
2022-08-28T04:38:05.736Z,49.33
2022-08-28T04:39:04.965Z,49.03
2022-08-28T04:40:04.983Z,49.43
2022-08-28T04:41:04.914Z,49.33
2022-08-28T04:42:04.901Z,49.13
2022-08-28T04:43:04.891Z,49.22
2022-08-28T04:44:04.879Z,49.13
2022-08-28T04:45:04.883Z,49.13
2022-08-28T04:46:04.937Z,49.22
2022-08-28T04:47:04.846Z,49.22
2022-08-28T04:48:05.518Z,49.22
2022-08-28T04:49:05.826Z,49.22
2022-08-28T04:50:04.813Z,49.22
2022-08-28T04:51:04.807Z,49.33
2022-08-28T04:52:04.793Z,49.33
2022-08-28T04:53:04.781Z,49.33
2022-08-28T04:54:04.769Z,49.22
2022-08-28T04:55:04.759Z,49.13
2022-08-28T04:56:04.748Z,49.22
2022-08-28T04:57:06.435Z,49.22
2022-08-28T04:58:04.725Z,49.22
2022-08-28T04:59:04.712Z,49.22
2022-08-28T05:00:04.704Z,49.22
2022-08-28T05:01:04.746Z,49.22
2022-08-28T05:02:04.710Z,49.22
2022-08-28T05:03:04.735Z,49.52
2022-08-28T05:04:04.660Z,49.03
2022-08-28T05:05:04.646Z,49.22
2022-08-28T05:06:04.636Z,49.22
2022-08-28T05:07:04.625Z,49.52
2022-08-28T05:08:04.615Z,49.03
2022-08-28T05:09:04.609Z,49.03
2022-08-28T05:10:04.592Z,49.03
2022-08-28T05:11:04.585Z,49.52
2022-08-28T05:12:04.570Z,49.52
2022-08-28T05:13:04.561Z,49.52
2022-08-28T05:14:04.827Z,49.43
2022-08-28T05:15:04.542Z,49.52
2022-08-28T05:16:04.600Z,48.83
2022-08-28T05:17:04.516Z,48.83
2022-08-28T05:18:04.505Z,48.83
2022-08-28T05:19:04.494Z,49.43
2022-08-28T05:20:04.480Z,49.03
2022-08-28T05:21:04.486Z,49.03
2022-08-28T05:22:04.460Z,48.83
2022-08-28T05:23:04.449Z,49.03
2022-08-28T05:24:04.437Z,48.83
2022-08-28T05:25:04.426Z,49.03
2022-08-28T05:26:04.415Z,48.44
2022-08-28T05:27:04.409Z,48.63
2022-08-28T05:28:04.400Z,48.83
2022-08-28T05:29:04.382Z,49.03
2022-08-28T05:30:04.372Z,48.74
2022-08-28T05:31:04.360Z,48.74
2022-08-28T05:32:04.347Z,48.54
2022-08-28T05:33:04.368Z,48.63
2022-08-28T05:34:04.325Z,48.44
2022-08-28T05:35:04.315Z,48.44
2022-08-28T05:36:04.306Z,48.54
2022-08-28T05:37:04.293Z,48.63
2022-08-28T05:38:04.281Z,48.54
2022-08-28T05:39:04.293Z,49.03
2022-08-28T05:40:04.322Z,48.54
2022-08-28T05:41:04.248Z,48.44
2022-08-28T05:42:04.238Z,48.74
2022-08-28T05:43:04.227Z,48.44
2022-08-28T05:44:04.220Z,48.83
2022-08-28T05:45:04.211Z,48.54
2022-08-28T05:46:04.251Z,48.44
2022-08-28T05:47:04.186Z,48.83
2022-08-28T05:48:04.172Z,48.54
2022-08-28T05:49:09.167Z,48.34
2022-08-28T05:50:05.153Z,48.44
2022-08-28T05:51:04.140Z,48.74
2022-08-28T05:52:04.125Z,48.54
2022-08-28T05:53:04.117Z,48.44
2022-08-28T05:54:04.103Z,48.54
2022-08-28T05:55:04.093Z,48.54
2022-08-28T05:56:04.097Z,48.74
2022-08-28T05:57:04.071Z,48.54
2022-08-28T05:58:04.059Z,48.74
2022-08-28T05:59:04.056Z,48.63
2022-08-28T06:00:04.038Z,49.03
2022-08-28T06:01:04.026Z,48.63
2022-08-28T06:02:04.592Z,49.03
2022-08-28T06:03:04.004Z,48.83
2022-08-28T06:04:04.031Z,48.83
2022-08-28T06:05:03.982Z,48.93
2022-08-28T06:06:03.971Z,49.03
2022-08-28T06:07:03.959Z,49.03
2022-08-28T06:08:04.462Z,48.83
2022-08-28T06:09:03.938Z,49.03
2022-08-28T06:10:03.926Z,48.74
2022-08-28T06:11:03.916Z,48.83
2022-08-28T06:12:03.905Z,48.74
2022-08-28T06:13:03.897Z,48.83
2022-08-28T06:14:03.890Z,48.83
2022-08-28T06:15:03.873Z,48.63
2022-08-28T06:16:03.905Z,48.91
2022-08-28T06:17:03.848Z,48.74
2022-08-28T06:18:03.838Z,48.71
2022-08-28T06:19:03.828Z,48.32
2022-08-28T06:20:03.838Z,48.04
2022-08-28T06:21:03.806Z,48.24
2022-08-28T06:22:07.157Z,48.24
2022-08-28T06:23:03.782Z,48.14
2022-08-28T06:24:03.773Z,48.24
2022-08-28T06:25:06.425Z,48.32
2022-08-28T06:26:03.755Z,48.32
2022-08-28T06:27:03.739Z,48.32
2022-08-28T06:28:03.728Z,48.12
2022-08-28T06:29:03.716Z,48.22
2022-08-28T06:30:03.707Z,48.22
2022-08-28T06:31:22.940Z,48.32
2022-08-28T06:32:04.941Z,48.61
2022-08-28T06:33:03.672Z,48.61
2022-08-28T06:34:03.660Z,48.61
2022-08-28T06:35:03.649Z,48.41
2022-08-28T06:36:03.641Z,48.41
2022-08-28T06:37:03.629Z,48.41
2022-08-28T06:38:03.623Z,48.61
2022-08-28T06:39:03.605Z,48.61
2022-08-28T06:40:03.686Z,48.32
2022-08-28T06:41:03.586Z,48.41
2022-08-28T06:42:03.576Z,48.32
2022-08-28T06:43:03.560Z,48.91
2022-08-28T06:44:03.578Z,48.81
2022-08-28T06:45:03.538Z,48.61
2022-08-28T06:46:03.695Z,48.61
2022-08-28T06:47:03.518Z,48.91
2022-08-28T06:48:03.504Z,48.02
2022-08-28T06:49:03.493Z,48.81
2022-08-28T06:50:03.502Z,48.12
2022-08-28T06:51:03.471Z,48.71
2022-08-28T06:52:03.460Z,48.49
2022-08-28T06:53:03.448Z,48.02
2022-08-28T06:54:03.438Z,48.12
2022-08-28T06:55:03.433Z,48.41
2022-08-28T06:56:03.423Z,48.49
2022-08-28T06:57:03.405Z,48.32
2022-08-28T06:58:03.394Z,48.29
2022-08-28T06:59:03.382Z,48.22
2022-08-28T07:00:03.371Z,48.19
2022-08-28T07:01:03.377Z,48.22
2022-08-28T07:02:03.458Z,48.12
2022-08-28T07:03:03.407Z,48.22
2022-08-28T07:04:03.328Z,48.22
2022-08-28T07:05:03.323Z,48.02
2022-08-28T07:06:03.305Z,48.19
2022-08-28T07:07:03.294Z,48.10
2022-08-28T07:08:03.299Z,48.10
2022-08-28T07:09:03.272Z,48.10
2022-08-28T07:10:03.263Z,48.00
2022-08-28T07:11:03.249Z,48.39
2022-08-28T07:12:03.238Z,48.49
2022-08-28T07:13:03.227Z,48.29
2022-08-28T07:14:03.238Z,48.19
2022-08-28T07:15:03.206Z,48.29
2022-08-28T07:16:03.280Z,47.90
2022-08-28T07:17:03.183Z,48.39
2022-08-28T07:18:03.174Z,48.29
2022-08-28T07:19:03.162Z,48.29
2022-08-28T07:20:03.160Z,48.59
2022-08-28T07:21:03.138Z,48.10
2022-08-28T07:22:03.128Z,48.59
2022-08-28T07:23:03.116Z,48.39
2022-08-28T07:24:03.106Z,48.39
2022-08-28T07:25:03.097Z,48.49
2022-08-28T07:26:03.090Z,48.29
2022-08-28T07:27:03.072Z,48.19
2022-08-28T07:28:03.061Z,47.80
2022-08-28T07:29:09.676Z,48.19
2022-08-28T07:30:04.036Z,47.60
2022-08-28T07:31:03.082Z,48.00
2022-08-28T07:32:03.036Z,47.60
2022-08-28T07:33:03.006Z,47.90
2022-08-28T07:34:02.996Z,47.90
2022-08-28T07:35:02.984Z,47.31
2022-08-28T07:36:02.972Z,47.70
2022-08-28T07:37:02.960Z,47.70
2022-08-28T07:38:02.958Z,47.60
2022-08-28T07:39:02.939Z,47.70
2022-08-28T07:40:02.977Z,47.80
2022-08-28T07:41:02.916Z,47.78
2022-08-28T07:42:02.905Z,47.48
2022-08-28T07:43:02.894Z,47.41
2022-08-28T07:44:02.901Z,47.58
2022-08-28T07:45:02.874Z,47.48
2022-08-28T07:46:02.905Z,47.19
2022-08-28T07:47:02.849Z,46.69
2022-08-28T07:48:02.840Z,46.89
2022-08-28T07:49:02.826Z,46.69
2022-08-28T07:50:02.834Z,46.59
2022-08-28T07:51:02.806Z,47.38
2022-08-28T07:52:02.797Z,47.28
2022-08-28T07:53:02.783Z,47.19
2022-08-28T07:54:02.772Z,47.09
2022-08-28T07:55:02.765Z,47.58
2022-08-28T07:56:02.756Z,46.99
2022-08-28T07:57:02.741Z,47.58
2022-08-28T07:58:02.735Z,47.38
2022-08-28T07:59:02.717Z,47.78
2022-08-28T08:00:02.707Z,47.09
2022-08-28T08:01:02.766Z,46.99
2022-08-28T08:02:02.690Z,47.38
2022-08-28T08:03:02.780Z,47.19
2022-08-28T08:04:02.660Z,47.06
2022-08-28T08:05:02.649Z,46.99
2022-08-28T08:06:02.638Z,46.69
2022-08-28T08:07:02.627Z,46.87
2022-08-28T08:08:02.623Z,46.20
2022-08-28T08:09:02.604Z,46.10
2022-08-28T08:10:02.596Z,46.30
2022-08-28T08:11:02.583Z,46.47
2022-08-28T08:12:02.583Z,46.47
2022-08-28T08:13:02.561Z,46.50
2022-08-28T08:14:02.555Z,46.57
2022-08-28T08:15:02.542Z,46.77
2022-08-28T08:16:02.618Z,46.67
2022-08-28T08:17:02.518Z,46.97
2022-08-28T08:18:02.504Z,47.06
2022-08-28T08:19:02.498Z,46.67
2022-08-28T08:20:02.531Z,47.06
2022-08-28T08:21:02.473Z,47.06
2022-08-28T08:22:02.461Z,46.87
2022-08-28T08:23:02.450Z,46.87
2022-08-28T08:24:02.440Z,46.67
2022-08-28T08:25:02.427Z,46.28
2022-08-28T08:26:02.422Z,46.47
2022-08-28T08:27:02.409Z,46.87
2022-08-28T08:28:02.394Z,46.75
2022-08-28T08:29:02.382Z,45.96
2022-08-28T08:30:02.373Z,46.28
2022-08-28T08:31:02.406Z,46.28
2022-08-28T08:32:02.372Z,46.28
2022-08-28T08:33:02.339Z,46.25
2022-08-28T08:34:02.327Z,46.25
2022-08-28T08:35:02.317Z,46.55
2022-08-28T08:36:02.306Z,46.35
2022-08-28T08:37:02.296Z,46.28
2022-08-28T08:38:03.058Z,46.15
2022-08-28T08:39:02.273Z,46.06
2022-08-28T08:40:02.318Z,46.15
2022-08-28T08:41:02.250Z,46.15
2022-08-28T08:42:02.239Z,46.25
2022-08-28T08:43:02.232Z,46.35
2022-08-28T08:44:02.224Z,46.35
2022-08-28T08:45:02.206Z,46.15
2022-08-28T08:46:02.257Z,46.25
2022-08-28T08:47:02.195Z,46.55
2022-08-28T08:48:02.172Z,46.15
2022-08-28T08:49:02.166Z,46.35
2022-08-28T08:50:02.160Z,46.55
2022-08-28T08:51:02.140Z,45.86
2022-08-28T08:52:02.130Z,45.76
2022-08-28T08:53:02.118Z,45.56
2022-08-28T08:54:02.106Z,46.45
2022-08-28T08:55:02.097Z,45.86
2022-08-28T08:56:02.115Z,46.15
2022-08-28T08:57:02.074Z,46.84
2022-08-28T08:58:02.062Z,46.35
2022-08-28T08:59:02.058Z,46.55
2022-08-28T09:00:02.041Z,46.33
2022-08-28T09:01:02.107Z,46.03
2022-08-28T09:02:02.026Z,45.94
2022-08-28T09:03:02.065Z,46.03
2022-08-28T09:04:01.996Z,46.06
2022-08-28T09:05:01.984Z,46.06
2022-08-28T09:06:01.976Z,46.03
2022-08-28T09:07:01.963Z,46.23
2022-08-28T09:08:01.957Z,46.13
2022-08-28T09:09:01.942Z,46.13
2022-08-28T09:10:01.969Z,46.03
2022-08-28T09:11:01.931Z,45.84
2022-08-28T09:12:01.907Z,46.03
2022-08-28T09:13:01.895Z,45.84
2022-08-28T09:14:01.891Z,45.25
2022-08-28T09:15:01.874Z,45.74
2022-08-28T09:16:01.900Z,45.45
2022-08-28T09:17:01.852Z,45.45
2022-08-28T09:18:01.841Z,45.45
2022-08-28T09:19:01.829Z,45.35
2022-08-28T09:20:01.826Z,45.62
2022-08-28T09:21:01.807Z,46.23
2022-08-28T09:22:01.796Z,45.64
2022-08-28T09:23:02.174Z,46.23
2022-08-28T09:24:05.984Z,45.45
2022-08-28T09:25:02.794Z,45.15
2022-08-28T09:26:02.481Z,45.64
2022-08-28T09:27:01.741Z,45.42
2022-08-28T09:28:01.731Z,45.45
2022-08-28T09:29:01.719Z,45.45
2022-08-28T09:30:07.517Z,45.25
2022-08-28T09:31:02.764Z,45.45
2022-08-28T09:32:01.686Z,45.45
2022-08-28T09:33:01.675Z,45.25
2022-08-28T09:34:01.664Z,45.54
2022-08-28T09:35:01.653Z,45.84
2022-08-28T09:36:01.641Z,45.84
2022-08-28T09:37:01.639Z,45.74
2022-08-28T09:38:01.620Z,45.64
2022-08-28T09:39:01.608Z,45.62
2022-08-28T09:40:01.683Z,45.74
2022-08-28T09:41:01.587Z,45.94
2022-08-28T09:42:01.575Z,45.45
2022-08-28T09:43:01.593Z,45.54
2022-08-28T09:44:01.554Z,45.35
2022-08-28T09:45:01.550Z,45.52
2022-08-28T09:46:01.601Z,45.52
2022-08-28T09:47:01.520Z,45.32
2022-08-28T09:48:01.508Z,46.11
2022-08-28T09:49:01.503Z,45.52
2022-08-28T09:50:01.487Z,45.52
2022-08-28T09:51:01.477Z,45.13
2022-08-28T09:52:01.467Z,45.32
2022-08-28T09:53:01.452Z,45.42
2022-08-28T09:54:01.442Z,45.42
2022-08-28T09:55:01.461Z,44.93
2022-08-28T09:56:01.419Z,45.32
2022-08-28T09:57:01.410Z,45.32
2022-08-28T09:58:01.398Z,45.23
2022-08-28T09:59:01.386Z,45.60
2022-08-28T10:00:01.392Z,45.50
2022-08-28T10:01:01.396Z,45.60
2022-08-28T10:02:01.423Z,45.20
2022-08-28T10:03:04.488Z,45.60
2022-08-28T10:04:02.390Z,45.10
2022-08-28T10:05:01.320Z,45.50
2022-08-28T10:06:01.309Z,45.30
2022-08-28T10:07:01.304Z,45.40
2022-08-28T10:08:01.287Z,45.60
2022-08-28T10:09:01.279Z,45.70
2022-08-28T10:10:01.265Z,45.79
2022-08-28T10:11:01.255Z,45.50
2022-08-28T10:12:01.244Z,45.89
2022-08-28T10:13:01.237Z,45.30
2022-08-28T10:14:01.221Z,45.99
2022-08-28T10:15:01.211Z,45.99
2022-08-28T10:16:01.245Z,45.70
2022-08-28T10:17:01.187Z,45.30
2022-08-28T10:18:01.176Z,45.52
2022-08-28T10:19:01.172Z,45.72
2022-08-28T10:20:01.158Z,45.79
2022-08-28T10:21:01.144Z,45.40
2022-08-28T10:22:01.133Z,45.50
2022-08-28T10:23:01.121Z,45.52
2022-08-28T10:24:01.109Z,45.40
2022-08-28T10:25:01.105Z,45.23
2022-08-28T10:26:01.088Z,45.42
2022-08-28T10:27:01.076Z,44.83
2022-08-28T10:28:01.071Z,45.23
2022-08-28T10:29:01.055Z,45.32
2022-08-28T10:30:05.874Z,45.50
2022-08-28T10:31:02.075Z,45.99
2022-08-28T10:32:01.021Z,45.30
2022-08-28T10:33:01.009Z,45.40
2022-08-28T10:34:00.998Z,45.01
2022-08-28T10:35:00.987Z,45.89
2022-08-28T10:36:00.977Z,45.70
2022-08-28T10:37:00.982Z,45.60
2022-08-28T10:38:00.954Z,45.40
2022-08-28T10:39:00.947Z,45.70
2022-08-28T10:40:00.986Z,45.70
2022-08-28T10:41:00.921Z,45.40
2022-08-28T10:42:00.910Z,45.50
2022-08-28T10:43:00.907Z,45.79
2022-08-28T10:44:00.888Z,45.30
2022-08-28T10:45:01.158Z,45.30
2022-08-28T10:46:00.944Z,45.60
2022-08-28T10:47:00.854Z,45.20
2022-08-28T10:48:00.843Z,45.60
2022-08-28T10:49:00.838Z,45.70
2022-08-28T10:50:00.822Z,45.23
2022-08-28T10:51:00.812Z,45.70
2022-08-28T10:52:00.802Z,45.09
2022-08-28T10:53:00.788Z,45.01
2022-08-28T10:54:00.776Z,45.40
2022-08-28T10:55:00.772Z,45.23
2022-08-28T10:56:00.756Z,45.60
2022-08-28T10:57:00.747Z,45.60
2022-08-28T10:58:00.733Z,45.70
2022-08-28T10:59:00.721Z,45.50
2022-08-28T11:00:00.712Z,45.50
2022-08-28T11:01:00.776Z,45.42
2022-08-28T11:02:00.689Z,45.72
2022-08-28T11:03:00.808Z,45.23
2022-08-28T11:04:00.667Z,45.42
2022-08-28T11:05:00.655Z,45.32
2022-08-28T11:06:00.644Z,45.32
2022-08-28T11:07:00.649Z,46.11
2022-08-28T11:08:00.622Z,45.92
2022-08-28T11:09:00.611Z,46.01
2022-08-28T11:10:00.600Z,45.92
2022-08-28T11:11:00.589Z,45.81
2022-08-28T11:12:02.263Z,45.52
2022-08-28T11:13:00.572Z,45.81
2022-08-28T11:14:00.555Z,45.81
2022-08-28T11:15:00.545Z,46.11
2022-08-28T11:16:00.535Z,45.23
2022-08-28T11:17:00.673Z,46.21
2022-08-28T11:18:00.512Z,46.01
2022-08-28T11:19:00.506Z,45.92
2022-08-28T11:20:00.489Z,46.01
2022-08-28T11:21:00.478Z,45.42
2022-08-28T11:22:00.468Z,46.11
2022-08-28T11:23:00.456Z,45.72
2022-08-28T11:24:00.445Z,45.72
2022-08-28T11:25:04.414Z,45.72
2022-08-28T11:26:01.422Z,45.52
2022-08-28T11:27:00.411Z,45.54
2022-08-28T11:28:00.401Z,45.62
2022-08-28T11:29:00.390Z,45.52
2022-08-28T11:30:00.382Z,45.35
2022-08-28T11:31:00.417Z,45.52
2022-08-28T11:32:00.355Z,45.32
2022-08-28T11:33:00.346Z,45.52
2022-08-28T11:34:00.334Z,45.52
2022-08-28T11:35:00.323Z,45.52
2022-08-28T11:36:00.313Z,45.62
2022-08-28T11:37:00.336Z,45.74
2022-08-28T11:38:00.289Z,45.25
2022-08-28T11:39:00.279Z,45.94
2022-08-28T11:40:00.375Z,45.23
2022-08-28T11:41:00.263Z,45.05
2022-08-28T11:42:00.245Z,45.54
2022-08-28T11:43:00.251Z,46.03
2022-08-28T11:44:00.223Z,46.23
2022-08-28T11:45:00.212Z,45.15
2022-08-28T11:46:00.323Z,45.13
2022-08-28T11:47:00.189Z,45.54
2022-08-28T11:48:00.180Z,45.74
2022-08-28T11:49:00.197Z,45.74
2022-08-28T11:50:00.167Z,46.03
2022-08-28T11:51:00.145Z,45.74
2022-08-28T11:52:00.137Z,46.13
2022-08-28T11:53:00.128Z,46.13
2022-08-28T11:54:00.111Z,46.15
2022-08-28T11:55:00.107Z,46.13
2022-08-28T11:56:00.103Z,46.13
2022-08-28T11:57:00.080Z,46.03
2022-08-28T11:58:29.812Z,46.33
2022-08-28T11:59:34.934Z,46.03
2022-08-28T12:00:30.795Z,46.43
2022-08-28T12:01:29.779Z,46.33
2022-08-28T12:02:29.814Z,46.53
2022-08-28T12:03:29.756Z,46.53
2022-08-28T12:04:29.807Z,46.45
2022-08-28T12:05:29.734Z,45.84
2022-08-28T12:06:29.730Z,46.13
2022-08-28T12:07:29.714Z,46.75
2022-08-28T12:08:29.702Z,45.74
2022-08-28T12:09:29.691Z,46.06
2022-08-28T12:10:29.680Z,46.82
2022-08-28T12:11:29.671Z,45.74
2022-08-28T12:12:29.679Z,45.86
2022-08-28T12:13:29.648Z,46.65
2022-08-28T12:14:29.637Z,45.84
2022-08-28T12:15:29.632Z,46.45
2022-08-28T12:16:29.740Z,45.84
2022-08-28T12:17:31.492Z,45.86
2022-08-28T12:18:29.630Z,46.43
2022-08-28T12:19:29.583Z,46.62
2022-08-28T12:20:29.572Z,46.23
2022-08-28T12:21:29.561Z,46.53
2022-08-28T12:22:29.552Z,46.03
2022-08-28T12:23:29.538Z,46.03
2022-08-28T12:24:29.535Z,46.13
2022-08-28T12:25:29.518Z,46.33
2022-08-28T12:26:29.506Z,46.03
2022-08-28T12:27:29.495Z,45.94
2022-08-28T12:28:29.484Z,46.13
2022-08-28T12:29:29.475Z,46.33
2022-08-28T12:30:29.527Z,46.33
2022-08-28T12:31:29.453Z,46.33
2022-08-28T12:32:29.442Z,46.53
2022-08-28T12:33:29.431Z,46.43
2022-08-28T12:34:29.419Z,46.43
2022-08-28T12:35:30.101Z,45.84
2022-08-28T12:36:29.405Z,45.84
2022-08-28T12:37:29.389Z,45.64
2022-08-28T12:38:29.376Z,45.67
2022-08-28T12:39:29.365Z,45.67
2022-08-28T12:40:29.499Z,46.84
2022-08-28T12:41:29.344Z,45.64
2022-08-28T12:42:29.355Z,45.86
2022-08-28T12:43:29.331Z,45.74
2022-08-28T12:44:29.311Z,46.75
2022-08-28T12:45:29.299Z,45.86
2022-08-28T12:46:29.372Z,46.72
2022-08-28T12:47:29.278Z,46.25
2022-08-28T12:48:29.288Z,46.55
2022-08-28T12:49:29.256Z,46.84
2022-08-28T12:50:29.245Z,46.84
2022-08-28T12:51:29.234Z,46.84
2022-08-28T12:52:29.225Z,46.84
2022-08-28T12:53:29.215Z,46.84
2022-08-28T12:54:29.233Z,46.25